createdAt,value
2022-08-04T00:01:22.768Z,97367.84
2022-08-04T00:04:42.597Z,97372.34
2022-08-04T00:07:52.566Z,97369.91
2022-08-04T00:10:57.243Z,97367.97
2022-08-04T00:14:04.794Z,97367.19
2022-08-04T00:17:08.406Z,97361.59
2022-08-04T00:20:18.791Z,97357.34
2022-08-04T00:23:23.890Z,97362.22
2022-08-04T00:26:27.010Z,97367.53
2022-08-04T00:29:30.082Z,97367.81
2022-08-04T00:32:34.833Z,97364.53
2022-08-04T00:35:39.654Z,97372.66
2022-08-04T00:38:43.142Z,97365.66
2022-08-04T00:41:58.506Z,97370.09
2022-08-04T00:46:00.485Z,97377.19
2022-08-04T00:49:12.099Z,97371.56
2022-08-04T00:52:30.582Z,97364.59
2022-08-04T00:56:05.411Z,97372.38
2022-08-04T00:59:18.957Z,97370.34
2022-08-04T01:02:29.958Z,97371.81
2022-08-04T01:05:49.928Z,97366.47
2022-08-04T01:09:27.765Z,97374.19
2022-08-04T01:12:54.841Z,97370.03
2022-08-04T01:16:03.192Z,97378.53
2022-08-04T01:19:15.864Z,97368.88
2022-08-04T01:22:42.747Z,97376.91
2022-08-04T01:26:42.511Z,97366.53
2022-08-04T01:29:50.340Z,97369.72
2022-08-04T01:32:58.470Z,97372.06
2022-08-04T01:36:06.484Z,97366.53
2022-08-04T01:39:29.771Z,97368.97
2022-08-04T01:42:34.862Z,97369.44
2022-08-04T01:45:39.651Z,97370.59
2022-08-04T01:48:46.175Z,97370.59
2022-08-04T01:51:52.178Z,97370.03
2022-08-04T01:54:56.568Z,97367.59
2022-08-04T01:58:01.459Z,97371.66
2022-08-04T02:01:08.722Z,97370.50
2022-08-04T02:04:19.434Z,97364.34
2022-08-04T02:07:34.549Z,97371.06
2022-08-04T02:10:54.894Z,97365.69
2022-08-04T02:14:03.171Z,97370.59
2022-08-04T02:17:12.281Z,97368.47
2022-08-04T02:20:20.788Z,97371.94
2022-08-04T02:23:31.806Z,97367.06
2022-08-04T02:26:35.847Z,97371.88
2022-08-04T02:34:29.253Z,97361.72
2022-08-04T02:37:33.412Z,97360.41
2022-08-04T02:40:36.942Z,97351.75
2022-08-04T02:43:51.040Z,97350.69
2022-08-04T02:46:56.418Z,97348.00
2022-08-04T02:50:02.248Z,97349.63
2022-08-04T02:53:09.956Z,97348.00
2022-08-04T02:56:14.050Z,97350.13
2022-08-04T02:59:19.389Z,97352.50
2022-08-04T03:02:33.095Z,97351.63
2022-08-04T03:06:00.992Z,97345.47
2022-08-04T03:09:30.415Z,97357.47
2022-08-04T03:13:08.589Z,97354.25
2022-08-04T03:16:31.860Z,97354.09
2022-08-04T03:19:57.880Z,97359.09
2022-08-04T03:23:20.432Z,97357.66
2022-08-04T03:26:55.153Z,97356.81
2022-08-04T03:30:09.509Z,97355.72
2022-08-04T03:33:41.460Z,97364.31
2022-08-04T03:37:12.916Z,97362.69
2022-08-04T03:40:36.905Z,97364.25
2022-08-04T03:44:05.097Z,97361.56
2022-08-04T03:47:30.868Z,97351.31
2022-08-04T03:51:32.510Z,97362.50
2022-08-04T03:55:14.370Z,97362.19
2022-08-04T03:58:53.762Z,97359.78
2022-08-04T04:02:41.510Z,97365.13
2022-08-04T04:06:05.024Z,97361.13
2022-08-04T04:09:33.985Z,97362.44
2022-08-04T04:13:21.781Z,97366.47
2022-08-04T04:16:43.209Z,97368.38
2022-08-04T04:19:58.228Z,97368.38
2022-08-04T04:23:13.086Z,97362.91
2022-08-04T04:26:38.197Z,97367.53
2022-08-04T04:30:03.739Z,97367.22
2022-08-04T04:33:29.265Z,97368.03
2022-08-04T04:36:45.476Z,97371.28
2022-08-04T04:40:04.251Z,97373.72
2022-08-04T04:43:50.400Z,97368.97
2022-08-04T04:47:02.469Z,97377.78
2022-08-04T04:50:15.906Z,97379.72
2022-08-04T04:53:25.311Z,97382.28
2022-08-04T04:56:36.916Z,97385.50
2022-08-04T04:59:46.912Z,97388.41
2022-08-04T05:03:27.672Z,97383.19
2022-08-04T05:06:54.252Z,97388.34
2022-08-04T05:10:08.956Z,97387.97
2022-08-04T05:14:37.545Z,97398.03
2022-08-04T05:17:01.053Z,97389.16
2022-08-04T05:20:08.785Z,97391.69
2022-08-04T05:23:19.554Z,97392.09
2022-08-04T05:26:27.134Z,97393.81
2022-08-04T05:29:41.011Z,97386.97
2022-08-04T05:32:51.766Z,97385.50
2022-08-04T05:36:21.812Z,97388.28
2022-08-04T05:39:32.348Z,97384.44
2022-08-04T05:42:38.620Z,97390.94
2022-08-04T05:45:42.659Z,97395.66
2022-08-04T05:48:46.799Z,97395.16
2022-08-04T05:51:50.672Z,97387.19
2022-08-04T05:54:56.432Z,97392.03
2022-08-04T05:58:00.541Z,97384.84
2022-08-04T06:01:04.185Z,97387.56
2022-08-04T06:04:11.237Z,97383.22
2022-08-04T06:07:14.814Z,97391.72
2022-08-04T06:10:21.198Z,97387.19
2022-08-04T06:13:49.688Z,97396.06
2022-08-04T06:16:56.154Z,97401.22
2022-08-04T06:20:20.095Z,97397.47
2022-08-04T06:23:25.674Z,97390.72
2022-08-04T06:26:31.055Z,97401.78
2022-08-04T06:29:37.391Z,97403.94
2022-08-04T06:32:47.849Z,97406.31
2022-08-04T06:35:51.660Z,97401.19
2022-08-04T06:38:58.748Z,97408.44
2022-08-04T06:42:22.101Z,97401.97
2022-08-04T06:45:28.441Z,97405.06
2022-08-04T06:48:33.939Z,97403.94
2022-08-04T06:51:49.068Z,97400.97
2022-08-04T06:54:54.216Z,97401.13
2022-08-04T06:58:03.168Z,97394.56
2022-08-04T07:01:07.284Z,97405.81
2022-08-04T07:04:11.654Z,97402.78
2022-08-04T07:07:14.855Z,97399.47
2022-08-04T07:10:22.131Z,97402.31
2022-08-04T07:13:28.432Z,97398.13
2022-08-04T07:16:33.076Z,97396.63
2022-08-04T07:19:37.348Z,97390.31
2022-08-04T07:22:45.687Z,97396.41
2022-08-04T07:26:11.161Z,97392.84
2022-08-04T07:29:16.531Z,97389.59
2022-08-04T07:32:21.002Z,97397.34
2022-08-04T07:36:04.858Z,97394.25
2022-08-04T07:38:51.244Z,97387.69
2022-08-04T07:41:55.229Z,97385.31
2022-08-04T07:44:59.868Z,97379.66
2022-08-04T07:48:05.887Z,97377.41
2022-08-04T07:51:09.443Z,97373.56
2022-08-04T07:54:13.974Z,97374.97
2022-08-04T07:57:19.431Z,97375.22
2022-08-04T08:00:47.133Z,97363.06
2022-08-04T08:03:51.968Z,97369.22
2022-08-04T08:06:54.855Z,97366.31
2022-08-04T08:09:57.730Z,97363.81
2022-08-04T08:13:01.095Z,97356.75
2022-08-04T08:16:06.521Z,97361.78
2022-08-04T08:19:09.475Z,97358.91
2022-08-04T08:22:12.663Z,97354.78
2022-08-04T08:25:15.541Z,97353.75
2022-08-04T08:28:18.705Z,97352.34
2022-08-04T08:31:24.907Z,97350.72
2022-08-04T08:34:46.339Z,97358.41
2022-08-04T08:37:56.460Z,97356.28
2022-08-04T08:41:15.562Z,97360.13
2022-08-04T08:44:57.971Z,97351.00
2022-08-04T08:48:22.966Z,97352.53
2022-08-04T08:51:46.823Z,97349.63
2022-08-04T08:55:03.582Z,97349.63
2022-08-04T08:58:29.881Z,97352.84
2022-08-04T09:01:59.612Z,97354.03
2022-08-04T09:05:32.916Z,97352.63
2022-08-04T09:09:05.598Z,97348.16
2022-08-04T09:12:15.161Z,97355.25
2022-08-04T09:15:45.782Z,97352.97
2022-08-04T09:19:05.494Z,97342.69
2022-08-04T09:22:17.419Z,97334.50
2022-08-04T09:25:25.916Z,97344.69
2022-08-04T09:28:52.764Z,97339.09
2022-08-04T09:32:06.741Z,97328.94
2022-08-04T09:35:24.214Z,97329.03
2022-08-04T09:38:36.823Z,97328.53
2022-08-04T09:41:52.866Z,97332.28
2022-08-04T09:45:06.327Z,97338.69
2022-08-04T09:48:15.180Z,97330.78
2022-08-04T09:51:25.675Z,97329.19
2022-08-04T09:54:55.024Z,97329.31
2022-08-04T09:58:06.490Z,97327.41
2022-08-04T10:01:11.428Z,97325.41
2022-08-04T10:04:20.267Z,97319.44
2022-08-04T10:08:04.606Z,97312.56
2022-08-04T10:11:15.788Z,97313.56
2022-08-04T10:14:38.177Z,97308.44
2022-08-04T10:18:00.850Z,97305.63
2022-08-04T10:21:14.851Z,97309.16
2022-08-04T10:24:34.213Z,97297.44
2022-08-04T10:27:44.672Z,97298.13
2022-08-04T10:30:52.908Z,97304.34
2022-08-04T10:34:02.143Z,97306.91
2022-08-04T10:37:09.576Z,97301.13
2022-08-04T10:40:35.765Z,97302.47
2022-08-04T10:43:49.124Z,97300.03
2022-08-04T10:46:57.021Z,97298.59
2022-08-04T10:50:02.406Z,97291.88
2022-08-04T10:53:09.519Z,97285.44
2022-08-04T10:56:20.522Z,97284.97
2022-08-04T10:59:31.112Z,97284.97
2022-08-04T11:02:44.441Z,97290.56
2022-08-04T11:05:50.689Z,97281.91
2022-08-04T11:08:56.577Z,97284.47
2022-08-04T11:12:08.681Z,97280.13
2022-08-04T11:15:21.959Z,97283.03
2022-08-04T11:18:33.451Z,97280.44
2022-08-04T11:21:40.941Z,97276.91
2022-08-04T11:24:47.453Z,97279.03
2022-08-04T11:28:12.241Z,97275.31
2022-08-04T11:32:08.800Z,97272.75
2022-08-04T11:35:23.683Z,97276.28
2022-08-04T11:38:32.737Z,97278.88
2022-08-04T11:41:54.698Z,97266.69
2022-08-04T11:45:04.503Z,97270.50
2022-08-04T11:48:13.024Z,97276.16
2022-08-04T11:51:18.643Z,97278.06
2022-08-04T11:54:22.901Z,97272.59
2022-08-04T11:57:35.616Z,97266.69
2022-08-04T12:00:48.570Z,97264.78
2022-08-04T12:04:04.746Z,97263.16
2022-08-04T12:07:30.704Z,97261.97
2022-08-04T12:10:46.907Z,97259.72
2022-08-04T12:14:04.859Z,97258.56
2022-08-04T12:17:08.677Z,97259.31
2022-08-04T12:20:30.141Z,97256.19
2022-08-04T12:23:40.997Z,97249.41
2022-08-04T12:26:47.665Z,97257.44
2022-08-04T12:30:54.115Z,97247.88
2022-08-04T12:33:23.484Z,97253.50
2022-08-04T12:36:55.756Z,97246.41
2022-08-04T12:40:28.343Z,97244.38
2022-08-04T12:43:36.061Z,97241.41
2022-08-04T12:46:40.111Z,97233.09
2022-08-04T12:49:48.123Z,97232.00
2022-08-04T12:53:31.474Z,97235.16
2022-08-04T12:56:37.679Z,97229.19
2022-08-04T12:59:40.769Z,97230.69
2022-08-04T13:02:47.152Z,97225.84
2022-08-04T13:05:54.731Z,97220.72
2022-08-04T13:09:05.852Z,97228.22
2022-08-04T13:12:16.990Z,97215.91
2022-08-04T13:15:23.072Z,97208.34
2022-08-04T13:18:30.282Z,97216.38
2022-08-04T13:21:49.945Z,97211.88
2022-08-04T13:26:41.805Z,97207.91
2022-08-04T13:28:27.711Z,97212.88
2022-08-04T13:31:35.919Z,97217.28
2022-08-04T13:34:49.594Z,97202.47
2022-08-04T13:37:58.204Z,97202.91
2022-08-04T13:41:04.224Z,97197.19
2022-08-04T13:44:18.280Z,97198.78
2022-08-04T13:47:27.939Z,97184.88
2022-08-04T13:50:33.416Z,97191.94
2022-08-04T13:53:38.124Z,97189.06
2022-08-04T13:56:49.485Z,97179.34
2022-08-04T13:59:58.869Z,97188.44
2022-08-04T14:03:19.462Z,97193.06
2022-08-04T14:06:29.680Z,97182.19
2022-08-04T14:09:35.509Z,97180.81
2022-08-04T14:12:47.095Z,97172.06
2022-08-04T14:16:01.752Z,97178.13
2022-08-04T14:19:06.779Z,97178.81
2022-08-04T14:22:13.998Z,97169.47
2022-08-04T14:25:19.533Z,97169.06
2022-08-04T14:29:01.036Z,97163.63
2022-08-04T14:32:03.176Z,97156.25
2022-08-04T14:35:12.368Z,97157.81
2022-08-04T14:38:15.335Z,97147.03
2022-08-04T14:41:19.878Z,97147.03
2022-08-04T14:44:22.767Z,97151.97
2022-08-04T14:47:52.894Z,97148.31
2022-08-04T14:50:56.233Z,97149.06
2022-08-04T14:53:59.196Z,97154.69
2022-08-04T14:57:07.122Z,97146.91
2022-08-04T15:00:14.611Z,97151.03
2022-08-04T15:03:22.894Z,97149.28
2022-08-04T15:06:29.115Z,97145.34
2022-08-04T15:09:32.944Z,97149.41
2022-08-04T15:12:37.058Z,97139.25
2022-08-04T15:15:41.344Z,97138.28
2022-08-04T15:18:49.153Z,97137.09
2022-08-04T15:21:53.545Z,97127.75
2022-08-04T15:24:56.366Z,97127.75
2022-08-04T15:27:59.971Z,97125.38
2022-08-04T15:31:05.204Z,97127.44
2022-08-04T15:34:15.724Z,97132.81
2022-08-04T15:37:25.500Z,97128.50
2022-08-04T15:40:33.423Z,97124.78
2022-08-04T15:43:55.401Z,97125.31
2022-08-04T15:47:13.605Z,97122.94
2022-08-04T15:50:28.489Z,97124.63
2022-08-04T15:54:03.003Z,97118.22
2022-08-04T15:57:02.429Z,97115.22
2022-08-04T16:00:14.272Z,97114.91
2022-08-04T16:04:00.563Z,97113.16
2022-08-04T16:07:06.882Z,97115.06
2022-08-04T16:10:37.367Z,97101.63
2022-08-04T16:14:09.213Z,97114.16
2022-08-04T16:17:17.289Z,97105.34
2022-08-04T16:20:21.476Z,97106.94
2022-08-04T16:23:54.932Z,97103.44
2022-08-04T16:27:00.537Z,97100.69
2022-08-04T16:30:08.562Z,97100.69
2022-08-04T16:33:15.016Z,97105.50
2022-08-04T16:36:57.879Z,97096.44
2022-08-04T16:40:34.570Z,97104.13
2022-08-04T16:43:39.125Z,97088.56
2022-08-04T16:47:08.428Z,97087.44
2022-08-04T16:50:06.258Z,97087.94
2022-08-04T16:53:14.441Z,97088.94
2022-08-04T16:56:37.193Z,97087.81
2022-08-04T16:59:40.258Z,97080.25
2022-08-04T17:02:45.224Z,97086.22
2022-08-04T17:05:48.251Z,97082.69
2022-08-04T17:08:51.189Z,97081.59
2022-08-04T17:11:55.340Z,97075.06
2022-08-04T17:14:58.551Z,97071.84
2022-08-04T17:18:16.211Z,97080.66
2022-08-04T17:21:24.401Z,97075.41
2022-08-04T17:24:27.204Z,97077.19
2022-08-04T17:28:19.684Z,97076.69
2022-08-04T17:30:56.921Z,97076.41
2022-08-04T17:34:01.650Z,97072.22
2022-08-04T17:37:36.524Z,97067.28
2022-08-04T17:40:27.644Z,97075.59
2022-08-04T17:44:04.440Z,97066.50
2022-08-04T17:47:12.796Z,97067.44
2022-08-04T17:50:25.816Z,97074.19
2022-08-04T17:54:01.975Z,97065.53
2022-08-04T17:56:59.461Z,97064.72
2022-08-04T18:00:04.224Z,97067.41
2022-08-04T18:03:23.728Z,97062.63
2022-08-04T18:06:27.383Z,97066.78
2022-08-04T18:09:57.882Z,97069.44
2022-08-04T18:12:56.390Z,97070.66
2022-08-04T18:17:17.831Z,97070.78
2022-08-04T18:20:32.346Z,97063.41
2022-08-04T18:23:50.382Z,97058.00
2022-08-04T18:26:53.757Z,97060.63
2022-08-04T18:30:33.405Z,97069.56
2022-08-04T18:33:39.617Z,97066.50
2022-08-04T18:36:44.769Z,97069.47
2022-08-04T18:40:17.251Z,97064.00
2022-08-04T18:43:28.495Z,97076.22
2022-08-04T18:50:59.382Z,97078.31
2022-08-04T18:53:35.268Z,97089.41
2022-08-04T18:56:38.872Z,97091.38
2022-08-04T19:00:05.878Z,97086.63
2022-08-04T19:03:08.705Z,97093.88
2022-08-04T19:06:12.418Z,97097.34
2022-08-04T19:09:16.636Z,97094.31
2022-08-04T19:12:27.610Z,97086.66
2022-08-04T19:15:34.498Z,97085.66
2022-08-04T19:18:37.657Z,97096.50
2022-08-04T19:22:00.802Z,97096.72
2022-08-04T19:25:05.962Z,97095.97
2022-08-04T19:28:17.430Z,97099.31
2022-08-04T19:31:24.977Z,97099.50
2022-08-04T19:34:35.008Z,97099.19
2022-08-04T19:38:01.903Z,97105.22
2022-08-04T19:41:02.511Z,97106.38
2022-08-04T19:44:17.212Z,97102.69
2022-08-04T19:48:12.109Z,97108.78
2022-08-04T19:50:43.175Z,97112.44
2022-08-04T19:53:46.843Z,97109.44
2022-08-04T19:56:52.387Z,97113.41
2022-08-04T19:59:55.348Z,97117.81
2022-08-04T20:02:58.467Z,97113.34
2022-08-04T20:06:02.898Z,97126.66
2022-08-04T20:09:26.383Z,97119.72
2022-08-04T20:12:29.871Z,97116.09
2022-08-04T20:15:33.556Z,97119.38
2022-08-04T20:18:55.649Z,97119.66
2022-08-04T20:21:59.921Z,97118.66
2022-08-04T20:25:18.283Z,97120.09
2022-08-04T20:28:36.474Z,97121.78
2022-08-04T20:31:43.292Z,97121.31
2022-08-04T20:34:46.438Z,97118.75
2022-08-04T20:37:55.184Z,97122.03
2022-08-04T20:41:03.342Z,97114.88
2022-08-04T20:44:10.650Z,97114.34
2022-08-04T20:47:21.743Z,97114.44
2022-08-04T20:50:29.600Z,97122.03
2022-08-04T20:53:53.138Z,97123.69
2022-08-04T20:56:58.302Z,97127.47
2022-08-04T21:00:03.995Z,97131.06
2022-08-04T21:03:07.040Z,97129.44
2022-08-04T21:06:10.521Z,97122.19
2022-08-04T21:09:15.518Z,97123.56
2022-08-04T21:12:29.629Z,97128.97
2022-08-04T21:15:57.736Z,97125.72
2022-08-04T21:18:56.592Z,97120.38
2022-08-04T21:22:01.182Z,97124.16
2022-08-04T21:25:03.989Z,97133.38
2022-08-04T21:28:08.529Z,97127.97
2022-08-04T21:31:21.895Z,97120.69
2022-08-04T21:34:37.902Z,97122.06
2022-08-04T21:37:58.236Z,97114.81
2022-08-04T21:41:04.210Z,97115.13
2022-08-04T21:44:09.786Z,97118.41
2022-08-04T21:47:23.734Z,97115.25
2022-08-04T21:50:30.574Z,97120.13
2022-08-04T21:53:33.654Z,97125.06
2022-08-04T21:56:38.102Z,97130.22
2022-08-04T21:59:45.056Z,97120.22
2022-08-04T22:02:53.592Z,97127.78
2022-08-04T22:05:56.547Z,97126.75
2022-08-04T22:08:59.416Z,97125.75
2022-08-04T22:16:04.033Z,97126.28
2022-08-04T22:18:49.205Z,97131.25
2022-08-04T22:21:56.691Z,97131.25
2022-08-04T22:25:12.405Z,97128.81
2022-08-04T22:28:16.835Z,97132.59
2022-08-04T22:31:23.143Z,97131.00
2022-08-04T22:34:28.273Z,97126.44
2022-08-04T22:37:35.995Z,97129.16
2022-08-04T22:40:47.465Z,97123.22
2022-08-04T22:43:54.839Z,97123.28
2022-08-04T22:46:57.979Z,97120.59
2022-08-04T22:50:28.252Z,97127.13
2022-08-04T22:53:26.296Z,97128.78
2022-08-04T22:56:38.448Z,97127.44
2022-08-04T22:59:43.365Z,97123.41
2022-08-04T23:02:46.309Z,97121.56
2022-08-04T23:05:52.690Z,97122.94
2022-08-04T23:08:57.053Z,97120.28
2022-08-04T23:12:23.873Z,97123.50
2022-08-04T23:15:22.845Z,97121.63
2022-08-04T23:18:26.840Z,97116.03
2022-08-04T23:21:41.086Z,97110.09
2022-08-04T23:24:50.408Z,97106.88
2022-08-04T23:27:53.331Z,97103.13
2022-08-04T23:30:57.603Z,97100.47
2022-08-04T23:34:00.991Z,97099.94
2022-08-04T23:37:05.240Z,97101.03
2022-08-04T23:40:30.180Z,97094.88
2022-08-04T23:43:49.192Z,97100.25
2022-08-04T23:46:53.332Z,97093.00
2022-08-04T23:49:58.162Z,97097.34
2022-08-04T23:53:02.323Z,97093.56
2022-08-04T23:56:08.134Z,97086.06
2022-08-04T23:59:23.183Z,97083.09
